Time;durP1;ratioP1;P1;durP2;ratioP2;P2;SDS_P1;SDS_P2;PMS_P1;PMS_P2;Temp;Humidity;BMP_temperature;BMP_pressure;BME280_temperature;BME280_humidity;BME280_pressure;Samples;Min_cycle;Max_cycle;Signal;HPM_P1;HPM_P2
2021/05/25 00:01:31;;;;;;;8.65;4.20;;;;;;;;;;6168844;23;20199;-91
2021/05/25 00:04:36;;;;;;;7.95;3.78;;;;;;;;;;6165223;23;20234;-91
2021/05/25 00:07:40;;;;;;;6.70;4.07;;;;;;;;;;6166081;23;20171;-90
2021/05/25 00:10:45;;;;;;;5.38;3.72;;;;;;;;;;6165862;23;20660;-91
2021/05/25 00:13:50;;;;;;;116.70;66.45;;;;;;;;;;6166568;23;20231;-90
2021/05/25 00:16:55;;;;;;;12.27;6.70;;;;;;;;;;6167419;23;20180;-90
2021/05/25 00:20:00;;;;;;;12.32;6.28;;;;;;;;;;6167081;23;20601;-90
2021/05/25 00:23:04;;;;;;;73.05;36.78;;;;;;;;;;6167186;23;20651;-90
2021/05/25 00:26:11;;;;;;;18.25;11.02;;;;;;;;;;6166603;23;20165;-90
2021/05/25 00:29:15;;;;;;;7.63;4.95;;;;;;;;;;6166286;23;20168;-90
2021/05/25 00:32:20;;;;;;;8.18;4.72;;;;;;;;;;6167089;23;20608;-91
2021/05/25 00:35:26;;;;;;;9.40;4.60;;;;;;;;;;6166967;23;20172;-91
2021/05/25 00:38:31;;;;;;;7.25;5.07;;;;;;;;;;6166641;23;20164;-91
2021/05/25 00:41:36;;;;;;;9.38;5.22;;;;;;;;;;6164978;23;20197;-90
2021/05/25 00:44:41;;;;;;;7.82;4.80;;;;;;;;;;6165428;23;20234;-92
2021/05/25 00:47:47;;;;;;;7.95;5.03;;;;;;;;;;6165182;23;20181;-91
2021/05/25 00:50:53;;;;;;;6.93;5.45;;;;;;;;;;6166165;23;20257;-91
2021/05/25 00:53:57;;;;;;;10.02;5.90;;;;;;;;;;6166937;23;20241;-92
2021/05/25 00:57:02;;;;;;;10.80;5.72;;;;;;;;;;6165747;23;20195;-90
2021/05/25 01:00:08;;;;;;;10.35;6.45;;;;;;;;;;6165847;23;20268;-90
2021/05/25 01:03:15;;;;;;;10.50;6.20;;;;;;;;;;6166088;23;20196;-90
2021/05/25 01:06:19;;;;;;;9.52;6.07;;;;;;;;;;6166526;23;20168;-90
2021/05/25 01:09:24;;;;;;;10.50;6.97;;;;;;;;;;6166533;23;20217;-91
2021/05/25 01:12:31;;;;;;;12.57;7.25;;;;;;;;;;6167515;23;20169;-90
2021/05/25 01:15:36;;;;;;;12.35;7.00;;;;;;;;;;6164773;23;20168;-90
2021/05/25 01:18:41;;;;;;;10.50;6.72;;;;;;;;;;6166642;23;20204;-90
2021/05/25 01:21:49;;;;;;;9.45;6.50;;;;;;;;;;6165426;23;20172;-90
2021/05/25 01:24:53;;;;;;;14.60;6.63;;;;;;;;;;6182743;23;20216;-89
2021/05/25 01:27:59;;;;;;;9.82;6.30;;;;;;;;;;6165103;23;20172;-89
2021/05/25 01:31:04;;;;;;;8.77;6.63;;;;;;;;;;6165181;23;20268;-91
2021/05/25 01:34:09;;;;;;;11.25;6.10;;;;;;;;;;6182611;23;20152;-90
2021/05/25 01:37:14;;;;;;;10.80;6.22;;;;;;;;;;6166188;23;20212;-91
2021/05/25 01:40:19;;;;;;;9.70;5.38;;;;;;;;;;6165482;23;20596;-90
2021/05/25 01:43:23;;;;;;;8.93;5.63;;;;;;;;;;6164085;23;20203;-90
2021/05/25 01:46:28;;;;;;;8.10;5.75;;;;;;;;;;6165526;23;20196;-90
2021/05/25 01:49:33;;;;;;;7.93;5.20;;;;;;;;;;6164404;23;20231;-90
2021/05/25 01:52:38;;;;;;;10.88;5.00;;;;;;;;;;6164631;23;20168;-91
2021/05/25 01:55:43;;;;;;;7.18;4.38;;;;;;;;;;6164085;23;20172;-91
2021/05/25 01:58:48;;;;;;;4.60;2.90;;;;;;;;;;6165683;23;20225;-90
2021/05/25 02:01:52;;;;;;;5.68;2.40;;;;;;;;;;6145825;23;20615;-90
2021/05/25 02:04:56;;;;;;;2.75;1.90;;;;;;;;;;6164239;23;20169;-89
2021/05/25 02:08:02;;;;;;;3.60;1.80;;;;;;;;;;6162930;23;20207;-89
2021/05/25 02:11:08;;;;;;;3.65;1.70;;;;;;;;;;6163950;23;20252;-90
2021/05/25 02:14:12;;;;;;;2.75;1.52;;;;;;;;;;6163131;23;20172;-89
2021/05/25 02:17:16;;;;;;;1.92;1.20;;;;;;;;;;6163801;23;20195;-89
2021/05/25 02:20:20;;;;;;;2.40;1.03;;;;;;;;;;6164037;23;20260;-89
2021/05/25 02:23:26;;;;;;;2.43;1.00;;;;;;;;;;6165912;23;20275;-89
2021/05/25 02:26:31;;;;;;;1.77;0.90;;;;;;;;;;6165113;23;20196;-90
2021/05/25 02:29:36;;;;;;;3.13;0.80;;;;;;;;;;6167451;23;20193;-89
2021/05/25 02:32:40;;;;;;;2.00;0.70;;;;;;;;;;6166858;23;20171;-90
2021/05/25 02:35:46;;;;;;;3.30;0.87;;;;;;;;;;6166178;23;20164;-91
2021/05/25 02:38:51;;;;;;;4.10;0.80;;;;;;;;;;6166448;23;20154;-88
2021/05/25 02:41:56;;;;;;;3.13;0.80;;;;;;;;;;6165910;23;20502;-89
2021/05/25 02:45:00;;;;;;;2.93;0.80;;;;;;;;;;6166485;23;20172;-90
2021/05/25 02:48:05;;;;;;;1.10;0.70;;;;;;;;;;6166742;23;20191;-89
2021/05/25 02:51:10;;;;;;;2.47;0.67;;;;;;;;;;6167555;23;20176;-90
2021/05/25 02:54:15;;;;;;;1.40;0.70;;;;;;;;;;6165130;23;20168;-92
2021/05/25 02:57:20;;;;;;;1.33;0.70;;;;;;;;;;6174801;23;20188;-89
2021/05/25 03:00:26;;;;;;;1.70;0.77;;;;;;;;;;6164640;23;20169;-91
2021/05/25 03:03:30;;;;;;;1.20;0.80;;;;;;;;;;6165332;23;20191;-92
2021/05/25 03:06:35;;;;;;;2.07;0.80;;;;;;;;;;6166012;23;20172;-90
2021/05/25 03:09:40;;;;;;;2.13;0.80;;;;;;;;;;6164890;23;20173;-90
2021/05/25 03:12:45;;;;;;;2.57;0.80;;;;;;;;;;6166839;23;20168;-90
2021/05/25 03:15:51;;;;;;;2.95;1.08;;;;;;;;;;6166786;23;20169;-91
2021/05/25 03:18:55;;;;;;;3.22;0.70;;;;;;;;;;6165495;23;20220;-91
2021/05/25 03:22:00;;;;;;;4.43;0.90;;;;;;;;;;6167315;23;20221;-90
2021/05/25 03:25:07;;;;;;;3.55;0.88;;;;;;;;;;6167602;23;20495;-90
2021/05/25 03:28:11;;;;;;;2.33;0.87;;;;;;;;;;6166768;23;20192;-90
2021/05/25 03:31:16;;;;;;;1.00;0.80;;;;;;;;;;6164827;23;20228;-92
2021/05/25 03:34:20;;;;;;;1.00;0.80;;;;;;;;;;6166963;23;20189;-91
2021/05/25 03:37:24;;;;;;;1.33;0.93;;;;;;;;;;6165673;23;20240;-91
2021/05/25 03:40:30;;;;;;;2.93;1.13;;;;;;;;;;6165900;23;20172;-90
2021/05/25 03:43:34;;;;;;;5.03;1.00;;;;;;;;;;6166195;23;20204;-90
2021/05/25 03:46:39;;;;;;;2.95;0.98;;;;;;;;;;6168119;23;20240;-91
2021/05/25 03:49:46;;;;;;;4.33;1.00;;;;;;;;;;6165758;23;20172;-92
2021/05/25 03:52:51;;;;;;;2.90;0.90;;;;;;;;;;6165326;23;20220;-92
2021/05/25 03:56:15;;;;;;;2.85;0.90;;;;;;;;;;6165379;23;20192;-90
2021/05/25 03:59:19;;;;;;;1.65;0.90;;;;;;;;;;6163490;23;20176;-90
2021/05/25 04:02:25;;;;;;;2.27;1.10;;;;;;;;;;6165298;23;20172;-90
2021/05/25 04:05:31;;;;;;;3.53;1.03;;;;;;;;;;6164953;23;20181;-91
2021/05/25 04:08:35;;;;;;;3.77;1.30;;;;;;;;;;6165543;23;20167;-91
2021/05/25 04:11:41;;;;;;;6.80;0.90;;;;;;;;;;6147764;23;20655;-90
2021/05/25 04:14:45;;;;;;;2.05;0.80;;;;;;;;;;6166044;23;20221;-91
2021/05/25 04:17:52;;;;;;;2.30;0.80;;;;;;;;;;6148690;23;20168;-91
2021/05/25 04:20:57;;;;;;;2.97;1.03;;;;;;;;;;6164867;23;20541;-89
2021/05/25 04:24:01;;;;;;;2.97;0.90;;;;;;;;;;6167353;23;20216;-91
2021/05/25 04:27:07;;;;;;;3.10;1.10;;;;;;;;;;6165372;23;20216;-90
2021/05/25 04:30:12;;;;;;;1.65;0.90;;;;;;;;;;6165799;23;20184;-91
2021/05/25 04:33:17;;;;;;;1.13;0.90;;;;;;;;;;6166715;23;20172;-90
2021/05/25 04:36:22;;;;;;;3.13;1.70;;;;;;;;;;6167447;23;20208;-90
2021/05/25 04:39:27;;;;;;;2.60;1.50;;;;;;;;;;6167636;23;20172;-91
2021/05/25 04:42:32;;;;;;;1.95;1.48;;;;;;;;;;6166464;23;20168;-91
2021/05/25 04:45:38;;;;;;;2.88;1.50;;;;;;;;;;6168147;23;20169;-89
2021/05/25 04:48:43;;;;;;;3.70;1.42;;;;;;;;;;6167776;23;20172;-90
2021/05/25 04:51:47;;;;;;;3.13;1.52;;;;;;;;;;6168843;23;20168;-92
2021/05/25 04:54:55;;;;;;;3.40;1.17;;;;;;;;;;6165742;23;20207;-91
2021/05/25 04:58:00;;;;;;;1.98;1.10;;;;;;;;;;6167756;23;20191;-90
2021/05/25 05:01:05;;;;;;;5.30;1.25;;;;;;;;;;6165484;23;20246;-92
2021/05/25 05:04:10;;;;;;;2.83;1.00;;;;;;;;;;6186323;23;20192;-93
2021/05/25 05:07:14;;;;;;;4.20;1.40;;;;;;;;;;6166440;23;20232;-91
2021/05/25 05:10:19;;;;;;;2.58;1.05;;;;;;;;;;6167665;23;20204;-91
2021/05/25 05:13:25;;;;;;;2.85;1.30;;;;;;;;;;6168109;23;20182;-91
2021/05/25 05:16:29;;;;;;;3.00;1.27;;;;;;;;;;6187112;23;20219;-92
2021/05/25 05:19:34;;;;;;;5.15;1.00;;;;;;;;;;6168823;23;20169;-92
2021/05/25 05:22:39;;;;;;;2.13;1.10;;;;;;;;;;6168277;23;20176;-91
2021/05/25 05:25:44;;;;;;;3.63;1.65;;;;;;;;;;6168957;23;20201;-91
2021/05/25 05:28:50;;;;;;;2.35;1.10;;;;;;;;;;6167439;23;20172;-92
2021/05/25 05:31:55;;;;;;;3.72;1.00;;;;;;;;;;6168826;23;20200;-91
2021/05/25 05:34:59;;;;;;;2.00;0.95;;;;;;;;;;6185096;23;20188;-93
2021/05/25 05:38:05;;;;;;;4.68;1.20;;;;;;;;;;6187547;23;20257;-93
2021/05/25 05:41:13;;;;;;;4.03;1.00;;;;;;;;;;6188469;23;20188;-92
2021/05/25 05:44:19;;;;;;;3.88;1.00;;;;;;;;;;6170950;23;20271;-92
2021/05/25 05:47:24;;;;;;;3.42;1.20;;;;;;;;;;6171337;23;20210;-92
2021/05/25 05:50:28;;;;;;;1.75;0.95;;;;;;;;;;6170086;23;20164;-94
2021/05/25 05:53:33;;;;;;;4.53;1.30;;;;;;;;;;6187056;23;20177;-91
2021/05/25 05:56:39;;;;;;;2.53;1.10;;;;;;;;;;6186191;23;20195;-93
2021/05/25 05:59:45;;;;;;;2.97;1.70;;;;;;;;;;6186438;23;20224;-92
2021/05/25 06:02:50;;;;;;;4.18;1.10;;;;;;;;;;6170809;23;20244;-92
2021/05/25 06:05:54;;;;;;;6.03;1.33;;;;;;;;;;6170214;23;20167;-90
2021/05/25 06:08:59;;;;;;;2.67;0.85;;;;;;;;;;6169707;23;20172;-92
2021/05/25 06:12:04;;;;;;;2.72;1.00;;;;;;;;;;6191656;23;20176;-89
2021/05/25 06:15:14;;;;;;;5.22;1.20;;;;;;;;;;6178047;23;20172;-93
2021/05/25 06:18:22;;;;;;;1.75;1.10;;;;;;;;;;6176861;23;20169;-93
2021/05/25 06:21:27;;;;;;;2.03;1.10;;;;;;;;;;6194549;23;20208;-93
2021/05/25 06:24:34;;;;;;;3.28;0.90;;;;;;;;;;6177756;23;20196;-92
2021/05/25 06:27:39;;;;;;;1.40;0.77;;;;;;;;;;6176165;23;20160;-90
2021/05/25 12:32:31;;;;;;;3.50;1.05;;;;;;;;;;6188954;23;20216;-92
2021/05/25 12:35:38;;;;;;;9.38;1.58;;;;;;;;;;6186899;23;20192;-91
2021/05/25 12:39:02;;;;;;;4.18;1.17;;;;;;;;;;6186339;23;20209;-90
2021/05/25 12:42:13;;;;;;;4.53;1.05;;;;;;;;;;6187875;23;20223;-93
2021/05/25 12:45:19;;;;;;;5.90;1.05;;;;;;;;;;6184119;23;20219;-92
2021/05/25 12:48:40;;;;;;;6.65;1.45;;;;;;;;;;6186335;23;20196;-92
2021/05/25 12:51:47;;;;;;;5.72;1.33;;;;;;;;;;6185309;23;20165;-92
2021/05/25 12:54:56;;;;;;;6.28;1.20;;;;;;;;;;6185258;23;20228;-92
2021/05/25 12:58:01;;;;;;;8.20;1.30;;;;;;;;;;6189755;23;20171;-92
2021/05/25 13:01:22;;;;;;;7.40;1.42;;;;;;;;;;6191703;23;20179;-93
2021/05/25 13:04:29;;;;;;;6.35;1.88;;;;;;;;;;6189071;23;20207;-93
2021/05/25 13:07:56;;;;;;;4.60;1.30;;;;;;;;;;6210024;23;20172;-92
2021/05/25 13:11:08;;;;;;;8.02;1.50;;;;;;;;;;6188780;23;20172;-92
2021/05/25 13:14:19;;;;;;;5.30;1.33;;;;;;;;;;6190602;23;20180;-92
2021/05/25 13:17:24;;;;;;;10.45;1.98;;;;;;;;;;6191538;23;20175;-93
2021/05/25 13:20:30;;;;;;;4.55;1.45;;;;;;;;;;6189281;23;20619;-93
2021/05/25 13:23:37;;;;;;;9.07;1.70;;;;;;;;;;6186299;23;20199;-94
2021/05/25 13:26:43;;;;;;;7.97;1.52;;;;;;;;;;6187062;23;20175;-92
2021/05/25 13:29:55;;;;;;;3.45;1.38;;;;;;;;;;6187270;23;20663;-93
2021/05/25 14:35:02;;;;;;;7.78;1.25;;;;;;;;;;6084424;23;20214;-91
2021/05/25 14:38:07;;;;;;;5.38;1.33;;;;;;;;;;6066996;23;20699;-91
2021/05/25 14:41:12;;;;;;;3.28;1.30;;;;;;;;;;6067493;23;20177;-90
2021/05/25 14:44:18;;;;;;;4.55;0.88;;;;;;;;;;6066421;23;20224;-90
2021/05/25 14:47:22;;;;;;;3.22;1.20;;;;;;;;;;6087658;23;20162;-91
2021/05/25 14:50:29;;;;;;;9.65;1.10;;;;;;;;;;6069929;23;20178;-91
2021/05/25 14:53:46;;;;;;;8.18;1.77;;;;;;;;;;6084368;23;20211;-91
2021/05/25 14:56:56;;;;;;;7.07;1.60;;;;;;;;;;6085164;23;20182;-91
2021/05/25 15:00:01;;;;;;;8.90;2.00;;;;;;;;;;6084757;23;20178;-89
2021/05/25 15:03:13;;;;;;;8.57;1.58;;;;;;;;;;6084305;23;20168;-90
2021/05/25 15:06:21;;;;;;;9.82;2.20;;;;;;;;;;6084039;23;20167;-91
2021/05/25 15:09:28;;;;;;;6.15;2.25;;;;;;;;;;6083224;23;20170;-90
2021/05/25 15:12:33;;;;;;;10.27;1.80;;;;;;;;;;6066874;23;20170;-92
2021/05/25 15:15:38;;;;;;;7.90;1.60;;;;;;;;;;6066177;23;20166;-90
2021/05/25 15:18:47;;;;;;;7.40;1.77;;;;;;;;;;6085376;23;20166;-92
2021/05/25 15:21:53;;;;;;;4.15;1.55;;;;;;;;;;6067306;23;20171;-91
2021/05/25 15:25:01;;;;;;;6.40;1.80;;;;;;;;;;6069600;23;20266;-90
2021/05/25 15:28:07;;;;;;;5.70;1.73;;;;;;;;;;6068433;23;20219;-92
2021/05/25 15:31:12;;;;;;;9.88;2.17;;;;;;;;;;6082549;23;20183;-91
2021/05/25 15:34:17;;;;;;;6.78;2.17;;;;;;;;;;6128759;23;20214;-90
2021/05/25 22:06:03;;;;;;;6.63;2.27;;;;;;;;;;6172575;23;20187;-95
2021/05/25 22:09:08;;;;;;;5.70;2.40;;;;;;;;;;6154788;23;20188;-94
2021/05/25 22:12:13;;;;;;;8.40;2.47;;;;;;;;;;6154036;23;20209;-95
2021/05/25 22:15:18;;;;;;;8.43;2.73;;;;;;;;;;6155988;23;20175;-94
2021/05/25 22:18:23;;;;;;;6.63;2.80;;;;;;;;;;6152273;23;20204;-93
2021/05/25 22:21:29;;;;;;;7.13;3.50;;;;;;;;;;6156855;23;20180;-95
2021/05/25 22:24:34;;;;;;;7.67;2.70;;;;;;;;;;6155453;23;20204;-95
2021/05/25 22:27:38;;;;;;;5.80;2.23;;;;;;;;;;6155394;23;20192;-94
2021/05/25 22:30:44;;;;;;;6.50;2.20;;;;;;;;;;6156113;23;20176;-95
2021/05/25 22:33:49;;;;;;;5.73;2.27;;;;;;;;;;6155956;23;20215;-94
2021/05/25 22:36:55;;;;;;;5.93;2.73;;;;;;;;;;6156291;23;20168;-94
2021/05/25 22:40:00;;;;;;;4.93;2.67;;;;;;;;;;6157290;23;20172;-94
2021/05/25 22:43:05;;;;;;;8.97;2.53;;;;;;;;;;6157326;23;20167;-92
2021/05/25 22:46:10;;;;;;;5.83;2.30;;;;;;;;;;6157276;23;20204;-94
2021/05/25 22:49:15;;;;;;;7.30;2.17;;;;;;;;;;6157593;23;20188;-92
2021/05/25 22:52:21;;;;;;;9.53;2.50;;;;;;;;;;6158248;23;20196;-95
2021/05/25 22:55:26;;;;;;;7.77;2.80;;;;;;;;;;6157843;23;20220;-93
2021/05/25 22:58:31;;;;;;;5.03;2.30;;;;;;;;;;6157919;23;20193;-93
2021/05/25 23:01:36;;;;;;;8.63;2.30;;;;;;;;;;6161404;23;20196;-93
2021/05/25 23:04:41;;;;;;;5.37;2.30;;;;;;;;;;6158637;23;20192;-94
2021/05/25 23:07:47;;;;;;;6.77;2.80;;;;;;;;;;6175151;23;20169;-94
2021/05/25 23:10:52;;;;;;;5.90;2.43;;;;;;;;;;6175253;23;20171;-94
2021/05/25 23:13:56;;;;;;;7.87;2.10;;;;;;;;;;6175334;23;20491;-94
2021/05/25 23:17:02;;;;;;;11.33;2.73;;;;;;;;;;6175384;23;20212;-95
2021/05/25 23:20:09;;;;;;;7.40;2.50;;;;;;;;;;6173190;23;20168;-93
2021/05/25 23:23:14;;;;;;;17.50;7.67;;;;;;;;;;6173532;23;20164;-93
2021/05/25 23:26:19;;;;;;;7.00;2.90;;;;;;;;;;6173001;23;20248;-95
2021/05/25 23:29:24;;;;;;;11.90;2.90;;;;;;;;;;6172674;23;20171;-93
2021/05/25 23:32:30;;;;;;;9.33;2.90;;;;;;;;;;6172252;23;20165;-93
2021/05/25 23:35:35;;;;;;;8.50;2.90;;;;;;;;;;6174744;23;20180;-93
2021/05/25 23:38:41;;;;;;;8.47;3.27;;;;;;;;;;6174082;23;20558;-94
2021/05/25 23:41:46;;;;;;;12.07;3.20;;;;;;;;;;6173316;23;20169;-93
2021/05/25 23:44:51;;;;;;;7.77;3.10;;;;;;;;;;6174079;23;20228;-93
2021/05/25 23:47:56;;;;;;;10.53;2.80;;;;;;;;;;6174452;23;20168;-93
2021/05/25 23:51:01;;;;;;;9.50;3.20;;;;;;;;;;6173663;23;20176;-93
2021/05/25 23:54:08;;;;;;;10.37;3.33;;;;;;;;;;6175503;23;20201;-94
2021/05/25 23:57:13;;;;;;;10.63;3.53;;;;;;;;;;6175274;23;20172;-95
